Time;durP1;ratioP1;P1;durP2;ratioP2;P2;SDS_P1;SDS_P2;PMS_P1;PMS_P2;Temp;Humidity;BMP_temperature;BMP_pressure;BME280_temperature;BME280_humidity;BME280_pressure;Samples;Min_cycle;Max_cycle;Signal;HPM_P1;HPM_P2
2023/02/20 00:00:43;;;;;;;6.43;2.03;;;5.80;99.90;;;;;;4982594;28;20092;-82
2023/02/20 00:03:08;;;;;;;9.60;3.33;;;5.80;99.90;;;;;;4968322;28;20414;-81
2023/02/20 00:05:34;;;;;;;6.70;4.20;;;5.80;99.90;;;;;;4997038;28;20034;-81
2023/02/20 00:07:59;;;;;;;11.50;4.82;;;5.80;99.90;;;;;;4994609;28;20034;-83
2023/02/20 00:10:25;;;;;;;9.32;4.35;;;5.80;99.90;;;;;;4979393;28;20038;-82
2023/02/20 00:12:51;;;;;;;6.70;3.95;;;5.80;99.90;;;;;;4972968;28;20033;-82
2023/02/20 00:15:18;;;;;;;9.45;4.65;;;5.80;99.90;;;;;;4994996;28;20045;-82
2023/02/20 00:17:46;;;;;;;6.47;3.10;;;5.90;99.90;;;;;;4997819;28;20033;-81
2023/02/20 00:20:14;;;;;;;13.27;5.45;;;5.80;99.90;;;;;;4980708;28;20030;-81
2023/02/20 00:22:39;;;;;;;11.60;5.10;;;5.80;99.90;;;;;;4998669;28;20383;-81
2023/02/20 00:25:05;;;;;;;5.57;2.55;;;5.80;99.90;;;;;;4998137;28;20041;-81
2023/02/20 00:27:31;;;;;;;8.18;3.92;;;5.80;99.90;;;;;;4977592;28;20031;-82
2023/02/20 00:29:56;;;;;;;16.67;6.32;;;5.80;99.90;;;;;;4996231;28;20053;-81
2023/02/20 00:32:22;;;;;;;9.82;4.60;;;5.80;99.90;;;;;;5000352;28;20038;-82
2023/02/20 00:34:47;;;;;;;16.38;6.50;;;5.80;99.90;;;;;;4981146;28;20193;-81
2023/02/20 00:37:13;;;;;;;11.85;6.30;;;5.80;99.90;;;;;;4994430;28;20033;-81
2023/02/20 00:39:38;;;;;;;11.80;5.85;;;5.70;99.90;;;;;;4985365;28;20044;-81
2023/02/20 00:42:04;;;;;;;6.80;3.03;;;5.80;99.90;;;;;;4994894;28;20109;-82
2023/02/20 00:44:30;;;;;;;10.20;3.88;;;5.80;99.90;;;;;;4980936;28;20397;-82
2023/02/20 00:46:55;;;;;;;8.98;3.78;;;5.80;99.90;;;;;;4995619;28;20092;-81
2023/02/20 00:49:21;;;;;;;10.50;4.95;;;5.80;99.90;;;;;;4973725;28;20038;-81
2023/02/20 00:51:47;;;;;;;15.57;7.13;;;5.80;99.90;;;;;;4984654;28;20578;-82
2023/02/20 00:54:12;;;;;;;13.40;6.80;;;5.90;99.90;;;;;;4993200;28;20026;-81
2023/02/20 00:56:38;;;;;;;14.55;7.80;;;5.90;99.90;;;;;;4997891;28;20053;-81
2023/02/20 00:59:03;;;;;;;7.88;4.40;;;5.90;99.90;;;;;;4988862;28;20037;-80
2023/02/20 01:01:29;;;;;;;14.02;7.30;;;5.90;99.90;;;;;;4984005;28;20414;-81
2023/02/20 01:03:55;;;;;;;12.73;5.72;;;5.90;99.90;;;;;;4982698;28;20405;-80
2023/02/20 01:06:20;;;;;;;9.48;3.47;;;5.90;99.90;;;;;;4980716;28;20030;-82
2023/02/20 01:08:46;;;;;;;16.52;3.90;;;5.90;99.90;;;;;;4978481;28;20114;-82
2023/02/20 01:11:11;;;;;;;15.02;6.10;;;5.90;99.90;;;;;;4984270;28;20034;-81
2023/02/20 01:13:37;;;;;;;10.30;5.03;;;5.90;99.90;;;;;;4980581;28;20082;-80
2023/02/20 01:16:03;;;;;;;13.38;6.50;;;5.90;99.90;;;;;;4994411;28;20049;-81
2023/02/20 01:18:29;;;;;;;18.60;7.57;;;5.90;99.90;;;;;;4973094;28;20030;-81
2023/02/20 01:20:54;;;;;;;12.38;6.88;;;5.90;99.90;;;;;;4974104;28;20061;-81
2023/02/20 01:23:20;;;;;;;18.15;5.70;;;6.00;99.90;;;;;;4981443;28;20038;-81
2023/02/20 01:25:46;;;;;;;10.55;6.07;;;5.90;99.90;;;;;;5004014;28;20034;-81
2023/02/20 01:28:11;;;;;;;11.52;6.32;;;5.90;99.90;;;;;;4968312;28;20038;-81
2023/02/20 01:30:37;;;;;;;15.80;6.53;;;5.90;99.90;;;;;;4980796;28;20053;-81
2023/02/20 01:33:02;;;;;;;11.00;6.05;;;6.00;99.90;;;;;;4998247;28;20103;-81
2023/02/20 01:35:30;;;;;;;18.20;8.43;;;5.90;99.90;;;;;;4988763;28;20050;-81
2023/02/20 01:37:59;;;;;;;8.65;4.05;;;5.90;99.90;;;;;;4975270;28;20032;-81
2023/02/20 01:40:25;;;;;;;7.38;3.78;;;5.90;99.90;;;;;;4993639;28;20112;-81
2023/02/20 01:42:50;;;;;;;11.95;4.85;;;5.90;99.90;;;;;;4980193;28;20045;-80
2023/02/20 01:45:22;;;;;;;10.73;5.10;;;6.00;99.90;;;;;;4977279;28;20141;-80
2023/02/20 01:47:52;;;;;;;13.98;6.57;;;5.90;99.90;;;;;;4997097;28;20068;-80
2023/02/20 01:50:20;;;;;;;13.30;7.05;;;6.00;99.90;;;;;;4978512;28;20030;-80
2023/02/20 01:52:47;;;;;;;15.00;7.78;;;5.90;99.90;;;;;;4971380;28;20034;-81
2023/02/20 01:55:21;;;;;;;14.98;6.15;;;5.90;99.90;;;;;;4979055;28;20044;-81
2023/02/20 01:57:52;;;;;;;16.27;6.03;;;5.90;99.90;;;;;;4989285;28;20233;-80
2023/02/20 02:00:19;;;;;;;10.60;5.53;;;5.80;99.90;;;;;;4973631;28;20045;-81
2023/02/20 02:02:59;;;;;;;11.55;6.72;;;5.80;99.90;;;;;;4976784;28;20041;-81
2023/02/20 02:05:25;;;;;;;5.93;2.85;;;5.90;99.90;;;;;;4987435;28;20030;-80
2023/02/20 02:07:51;;;;;;;7.63;4.28;;;5.90;99.90;;;;;;4992094;28;20521;-80
2023/02/20 02:10:19;;;;;;;8.85;4.05;;;5.90;99.90;;;;;;4979765;28;20026;-81
2023/02/20 02:12:46;;;;;;;12.85;6.35;;;5.80;99.90;;;;;;4980930;28;20042;-81
2023/02/20 02:15:13;;;;;;;6.07;3.35;;;5.70;99.90;;;;;;4994314;28;20034;-81
2023/02/20 02:17:57;;;;;;;12.50;5.78;;;5.90;99.90;;;;;;4989312;28;20041;-82
2023/02/20 02:20:45;;;;;;;8.00;4.30;;;5.90;99.90;;;;;;4996195;28;20045;-80
2023/02/20 02:23:41;;;;;;;9.85;4.80;;;5.90;99.90;;;;;;5002025;28;20478;-81
2023/02/20 02:26:17;;;;;;;18.65;8.32;;;5.80;99.90;;;;;;4994690;28;20505;-81
2023/02/20 02:29:21;;;;;;;16.60;7.85;;;5.90;99.90;;;;;;4981267;28;20667;-81
2023/02/20 02:31:55;;;;;;;14.35;6.47;;;5.90;99.90;;;;;;5000643;28;20509;-80
2023/02/20 02:34:48;;;;;;;13.27;5.63;;;5.90;99.90;;;;;;4992308;28;20092;-81
2023/02/20 02:37:33;;;;;;;9.50;4.07;;;5.90;99.90;;;;;;5014909;28;20030;-81
2023/02/20 02:40:21;;;;;;;17.85;7.93;;;5.80;99.90;;;;;;4983091;28;20498;-82
2023/02/20 02:42:51;;;;;;;8.52;3.72;;;5.80;99.90;;;;;;4989565;28;20145;-81
2023/02/20 02:45:18;;;;;;;13.05;5.82;;;5.80;99.90;;;;;;4997020;28;20435;-82
2023/02/20 02:47:51;;;;;;;14.80;7.03;;;5.80;99.90;;;;;;5012811;28;20061;-81
2023/02/20 02:50:21;;;;;;;15.65;6.65;;;5.70;99.90;;;;;;5009836;28;20758;-81
2023/02/20 02:52:47;;;;;;;14.52;6.88;;;5.70;99.90;;;;;;4991796;28;20109;-81
2023/02/20 02:55:17;;;;;;;15.20;5.72;;;5.70;99.90;;;;;;4997111;28;20112;-81
2023/02/20 02:57:43;;;;;;;9.48;4.72;;;5.70;99.90;;;;;;5012275;28;20034;-81
2023/02/20 03:00:41;;;;;;;21.70;8.18;;;5.70;99.90;;;;;;5009894;28;20034;-81
2023/02/20 03:03:12;;;;;;;12.80;5.43;;;5.70;99.90;;;;;;5002084;28;20141;-81
2023/02/20 03:05:49;;;;;;;10.60;4.93;;;5.70;99.90;;;;;;5009323;28;20034;-81
2023/02/20 03:08:41;;;;;;;17.88;7.60;;;5.70;99.90;;;;;;5005963;28;20482;-81
2023/02/20 03:11:15;;;;;;;10.13;4.63;;;5.70;99.90;;;;;;4976715;28;20049;-81
2023/02/20 03:16:36;;;;;;;13.10;6.15;;;5.70;99.90;;;;;;4999649;28;20045;-81
2023/02/20 03:19:02;;;;;;;16.33;6.32;;;5.70;99.90;;;;;;4984284;28;20542;-81
2023/02/20 03:21:27;;;;;;;11.63;5.78;;;5.70;99.90;;;;;;4999197;28;20042;-81
2023/02/20 03:23:56;;;;;;;13.55;6.85;;;5.50;99.90;;;;;;4984512;28;20054;-83
2023/02/20 03:26:25;;;;;;;14.43;6.78;;;5.70;99.90;;;;;;4983684;28;20038;-81
2023/02/20 03:28:54;;;;;;;14.48;6.35;;;5.70;99.90;;;;;;4963674;28;20061;-83
2023/02/20 03:31:25;;;;;;;12.15;6.00;;;5.70;99.90;;;;;;5000872;28;20494;-83
2023/02/20 03:45:28;;;;;;;20.98;9.00;;;5.80;99.90;;;;;;5000889;28;20096;-81
2023/02/20 03:47:56;;;;;;;18.63;7.68;;;5.70;99.90;;;;;;4979977;28;20042;-80
2023/02/20 03:53:06;;;;;;;17.75;7.47;;;5.70;99.90;;;;;;4982786;28;20037;-80
2023/02/20 03:55:31;;;;;;;25.13;7.30;;;5.70;99.90;;;;;;4977978;28;20045;-80
2023/02/20 03:57:59;;;;;;;9.98;3.80;;;5.70;99.90;;;;;;4979051;28;20025;-80
2023/02/20 04:00:27;;;;;;;10.13;4.80;;;5.70;99.90;;;;;;4980817;28;20341;-80
2023/02/20 04:02:54;;;;;;;9.80;4.75;;;5.60;99.90;;;;;;5004967;28;20038;-80
2023/02/20 04:05:21;;;;;;;19.55;7.22;;;5.60;99.90;;;;;;4985351;28;20033;-81
2023/02/20 04:07:51;;;;;;;15.95;6.13;;;5.60;99.90;;;;;;4982738;28;20500;-80
2023/02/20 04:10:27;;;;;;;10.55;4.80;;;5.60;99.90;;;;;;5000331;28;20030;-81
2023/02/20 04:12:53;;;;;;;13.30;5.47;;;5.60;99.90;;;;;;4995538;28;20060;-81
2023/02/20 04:15:18;;;;;;;17.38;8.00;;;5.50;99.90;;;;;;4983253;28;20463;-81
2023/02/20 04:17:50;;;;;;;13.60;6.45;;;5.50;99.90;;;;;;4985842;28;20033;-80
2023/02/20 04:20:16;;;;;;;17.73;8.40;;;5.60;99.90;;;;;;4979483;28;20494;-80
2023/02/20 04:22:44;;;;;;;16.10;6.13;;;5.60;99.90;;;;;;4983936;28;20064;-80
2023/02/20 04:25:17;;;;;;;11.38;5.55;;;5.50;99.90;;;;;;4994986;28;20498;-81
2023/02/20 04:27:43;;;;;;;15.55;6.28;;;5.50;99.90;;;;;;4996304;28;20535;-81
2023/02/20 04:30:09;;;;;;;13.77;5.28;;;5.50;99.90;;;;;;4997870;28;20034;-80
2023/02/20 04:32:36;;;;;;;16.17;7.28;;;5.50;99.90;;;;;;4977850;28;20034;-80
2023/02/20 04:35:01;;;;;;;12.18;5.28;;;5.50;99.90;;;;;;4998681;28;20026;-81
2023/02/20 04:37:27;;;;;;;11.38;5.32;;;5.50;99.90;;;;;;4977149;28;20038;-81
2023/02/20 04:39:52;;;;;;;11.15;4.53;;;5.40;99.90;;;;;;4984233;28;20030;-80
2023/02/20 04:42:18;;;;;;;12.70;4.75;;;5.50;99.90;;;;;;4997396;28;20034;-81
2023/02/20 04:44:43;;;;;;;12.85;6.15;;;5.50;99.90;;;;;;4979453;28;20351;-80
2023/02/20 04:47:14;;;;;;;10.63;5.45;;;5.40;99.90;;;;;;4992575;28;20029;-81
2023/02/20 04:49:40;;;;;;;15.90;6.10;;;5.40;99.90;;;;;;4982258;28;20116;-80
2023/02/20 04:52:05;;;;;;;13.55;4.90;;;5.40;99.90;;;;;;4992592;28;20061;-80
2023/02/20 04:54:31;;;;;;;6.45;3.30;;;5.40;99.90;;;;;;4996904;28;20038;-81
2023/02/20 04:56:56;;;;;;;12.90;6.07;;;5.40;99.90;;;;;;4980640;28;20073;-80
2023/02/20 04:59:22;;;;;;;9.15;4.53;;;5.40;99.90;;;;;;4980767;28;20042;-81
2023/02/20 05:01:50;;;;;;;12.18;4.57;;;5.50;99.90;;;;;;4998246;28;20042;-80
2023/02/20 05:04:17;;;;;;;13.05;4.80;;;5.50;99.90;;;;;;5000408;28;20042;-81
2023/02/20 05:06:43;;;;;;;15.05;6.63;;;5.40;99.90;;;;;;5002414;28;20379;-80
2023/02/20 05:09:09;;;;;;;9.27;5.15;;;5.50;99.90;;;;;;4996002;28;20034;-80
2023/02/20 05:11:37;;;;;;;10.65;4.10;;;5.50;99.90;;;;;;4993637;28;20045;-81
2023/02/20 05:14:03;;;;;;;14.02;5.10;;;5.40;99.90;;;;;;4975145;28;20033;-80
2023/02/20 05:16:28;;;;;;;13.90;5.43;;;5.40;99.90;;;;;;5002499;28;20044;-80
2023/02/20 05:18:54;;;;;;;15.57;6.88;;;5.40;99.90;;;;;;4967941;28;20129;-80
2023/02/20 05:24:05;;;;;;;11.85;4.45;;;5.40;99.90;;;;;;4993259;28;20041;-81
2023/02/20 05:26:30;;;;;;;14.88;7.00;;;5.50;99.90;;;;;;4992830;28;20041;-81
2023/02/20 05:28:56;;;;;;;11.70;5.43;;;5.40;99.90;;;;;;4998144;28;20065;-81
2023/02/20 05:31:21;;;;;;;16.45;5.63;;;5.40;99.90;;;;;;4977489;28;20065;-81
2023/02/20 05:33:47;;;;;;;12.90;5.82;;;5.40;99.90;;;;;;4974479;28;20665;-81
2023/02/20 05:36:13;;;;;;;8.00;4.53;;;5.40;99.90;;;;;;4979639;28;20457;-79
2023/02/20 05:38:40;;;;;;;17.05;6.65;;;5.30;99.90;;;;;;4998900;28;20133;-81
2023/02/20 05:41:06;;;;;;;13.10;6.15;;;5.30;99.90;;;;;;4974573;28;20855;-81
2023/02/20 05:43:32;;;;;;;10.85;3.33;;;5.30;99.90;;;;;;4986249;28;20125;-80
2023/02/20 05:45:57;;;;;;;8.35;2.85;;;5.30;99.90;;;;;;4978817;28;20297;-81
2023/02/20 05:48:23;;;;;;;14.93;6.10;;;5.40;99.90;;;;;;4953664;28;20517;-79
2023/02/20 05:50:49;;;;;;;15.25;5.72;;;5.30;99.90;;;;;;4980134;28;20524;-81
2023/02/20 05:53:15;;;;;;;14.90;6.07;;;5.30;99.90;;;;;;4986464;28;20034;-80
2023/02/20 05:55:40;;;;;;;12.70;6.68;;;5.30;99.90;;;;;;4976984;28;20045;-80
2023/02/20 05:58:09;;;;;;;11.48;3.50;;;5.30;99.90;;;;;;4979069;28;20129;-80
2023/02/20 06:00:34;;;;;;;10.35;5.00;;;5.40;99.90;;;;;;4997384;28;20042;-81
2023/02/20 06:03:00;;;;;;;15.80;5.55;;;5.40;99.90;;;;;;4998896;28;20478;-80
2023/02/20 06:05:27;;;;;;;5.65;3.50;;;5.40;99.90;;;;;;4994498;28;20517;-79
2023/02/20 06:07:52;;;;;;;19.02;6.70;;;5.40;99.90;;;;;;4981872;28;20045;-81
2023/02/20 06:10:18;;;;;;;16.08;5.53;;;5.40;99.90;;;;;;4990305;28;20045;-79
2023/02/20 06:12:43;;;;;;;8.88;3.90;;;5.40;99.90;;;;;;5004458;28;20030;-80
2023/02/20 06:15:09;;;;;;;11.63;4.32;;;5.40;99.90;;;;;;4941384;28;20042;-79
2023/02/20 06:17:35;;;;;;;12.90;4.80;;;5.40;99.90;;;;;;5011111;28;20040;-79
2023/02/20 06:20:00;;;;;;;10.60;3.75;;;5.30;99.90;;;;;;5011709;28;20105;-78
2023/02/20 06:22:26;;;;;;;11.40;6.25;;;5.40;99.90;;;;;;4994233;28;20030;-78
2023/02/20 06:24:51;;;;;;;7.85;4.03;;;5.40;99.90;;;;;;5013221;28;20489;-78
2023/02/20 06:27:17;;;;;;;11.40;5.22;;;5.40;99.90;;;;;;5006044;28;20371;-78
2023/02/20 06:29:45;;;;;;;10.98;5.75;;;5.40;99.90;;;;;;4968733;28;20030;-78
2023/02/20 06:32:11;;;;;;;13.38;7.05;;;5.40;99.90;;;;;;4988600;28;20109;-78
2023/02/20 06:34:36;;;;;;;13.60;4.30;;;5.40;99.90;;;;;;4970952;28;21048;-78
2023/02/20 06:37:02;;;;;;;9.85;5.32;;;5.50;99.90;;;;;;4993558;28;20046;-78
2023/02/20 06:39:28;;;;;;;12.73;6.05;;;5.40;99.90;;;;;;4980049;28;20464;-78
2023/02/20 06:41:54;;;;;;;11.98;5.93;;;5.50;99.90;;;;;;4964054;28;20441;-78
2023/02/20 06:44:20;;;;;;;16.65;7.03;;;5.50;99.90;;;;;;4994396;28;20436;-78
2023/02/20 06:46:45;;;;;;;14.27;6.28;;;5.50;99.90;;;;;;4985529;28;20537;-78
2023/02/20 06:49:11;;;;;;;12.25;6.07;;;5.50;99.90;;;;;;4999653;28;20029;-78
2023/02/20 06:51:39;;;;;;;11.50;6.35;;;5.50;99.90;;;;;;4978379;28;20030;-78
2023/02/20 06:54:04;;;;;;;14.73;7.40;;;5.50;99.90;;;;;;5002481;28;20030;-78
2023/02/20 06:56:31;;;;;;;12.90;6.57;;;5.60;99.90;;;;;;4977386;28;20386;-78
2023/02/20 06:58:57;;;;;;;17.95;7.00;;;5.60;99.90;;;;;;4997518;28;20041;-79
2023/02/20 07:01:28;;;;;;;15.85;10.90;;;5.60;99.90;;;;;;4973242;28;20429;-78
2023/02/20 07:03:54;;;;;;;9.18;6.10;;;5.60;99.90;;;;;;4976342;28;20029;-78
2023/02/20 07:06:20;;;;;;;13.95;7.40;;;5.60;99.90;;;;;;4974383;28;20113;-78
2023/02/20 07:08:45;;;;;;;22.23;11.80;;;5.60;99.90;;;;;;4994675;28;20030;-78
2023/02/20 07:11:11;;;;;;;16.77;9.35;;;5.60;99.90;;;;;;4994485;28;20036;-78
2023/02/20 07:13:37;;;;;;;19.55;10.45;;;5.60;99.90;;;;;;4978897;28;20036;-78
2023/02/20 07:16:02;;;;;;;19.25;10.93;;;5.60;99.90;;;;;;4998963;28;20084;-78
2023/02/20 07:18:28;;;;;;;17.48;8.30;;;5.60;99.90;;;;;;4998523;28;20126;-79
2023/02/20 07:20:54;;;;;;;19.75;10.20;;;5.60;99.90;;;;;;4991885;28;20033;-78
2023/02/20 07:23:19;;;;;;;15.05;8.00;;;5.60;99.90;;;;;;4974390;28;20117;-78
2023/02/20 07:25:46;;;;;;;14.95;8.63;;;5.70;99.90;;;;;;4986362;28;20041;-78
2023/02/20 07:28:13;;;;;;;18.58;9.55;;;5.70;99.90;;;;;;5001774;28;20121;-78
2023/02/20 07:30:38;;;;;;;18.13;8.93;;;5.70;99.90;;;;;;4988378;28;20038;-78
2023/02/20 07:33:04;;;;;;;19.52;10.88;;;5.70;99.90;;;;;;4995839;28;20040;-78
2023/02/20 07:35:29;;;;;;;17.65;8.20;;;5.70;99.90;;;;;;4989294;28;20036;-78
2023/02/20 07:37:55;;;;;;;18.88;9.38;;;5.70;99.90;;;;;;4981833;28;20053;-78
2023/02/20 07:40:21;;;;;;;10.82;6.25;;;5.70;99.90;;;;;;4995588;28;20057;-79
2023/02/20 07:42:46;;;;;;;18.58;8.70;;;5.70;99.90;;;;;;4977035;28;20038;-79
2023/02/20 07:45:12;;;;;;;15.88;7.82;;;5.80;99.90;;;;;;4993613;28;20061;-79
2023/02/20 07:47:38;;;;;;;18.95;7.53;;;5.80;99.90;;;;;;4993833;28;20391;-79
2023/02/20 07:50:03;;;;;;;13.85;6.47;;;5.80;99.90;;;;;;4961175;28;20252;-80
2023/02/20 07:52:29;;;;;;;17.52;10.20;;;5.80;99.90;;;;;;4993901;28;20046;-79
2023/02/20 07:54:57;;;;;;;8.65;5.13;;;5.90;99.90;;;;;;4976021;28;20121;-81
2023/02/20 07:57:22;;;;;;;19.73;10.65;;;5.90;99.90;;;;;;4996046;28;20061;-79
2023/02/20 07:59:48;;;;;;;15.27;7.75;;;5.90;99.90;;;;;;4982275;28;20037;-80
2023/02/20 08:02:13;;;;;;;20.33;10.95;;;6.00;99.90;;;;;;4971644;28;20124;-81
2023/02/20 08:04:39;;;;;;;18.85;7.43;;;6.00;99.90;;;;;;4963339;28;20037;-80
2023/02/20 08:07:08;;;;;;;15.35;6.75;;;6.00;99.90;;;;;;4993254;28;20064;-80
2023/02/20 08:09:33;;;;;;;17.20;9.30;;;6.10;99.90;;;;;;4303663;28;10000454;-80
2023/02/20 08:11:59;;;;;;;18.80;10.52;;;6.10;99.90;;;;;;4977062;28;20026;-80
2023/02/20 08:14:27;;;;;;;15.93;7.57;;;6.10;99.90;;;;;;4994160;28;20153;-80
2023/02/20 08:16:52;;;;;;;10.05;6.22;;;6.10;99.90;;;;;;4991261;28;20501;-80
2023/02/20 08:19:18;;;;;;;19.30;10.55;;;6.20;99.90;;;;;;4973613;28;20041;-80
2023/02/20 08:21:44;;;;;;;16.88;7.50;;;6.20;99.90;;;;;;4998695;28;20121;-80
2023/02/20 08:24:09;;;;;;;18.73;9.90;;;6.30;99.90;;;;;;4976519;28;20038;-80
2023/02/20 08:26:41;;;;;;;19.17;7.88;;;6.30;99.90;;;;;;4989036;28;20091;-79
2023/02/20 08:29:06;;;;;;;18.67;9.48;;;6.30;99.90;;;;;;4975068;28;20037;-80
2023/02/20 08:31:32;;;;;;;21.02;9.35;;;6.40;99.90;;;;;;4995130;28;20048;-80
2023/02/20 08:33:58;;;;;;;21.25;9.68;;;6.40;99.90;;;;;;4989600;28;20298;-80
2023/02/20 08:36:23;;;;;;;21.95;10.05;;;6.40;99.90;;;;;;4999821;28;20109;-80
2023/02/20 08:38:49;;;;;;;14.88;8.05;;;6.90;99.90;;;;;;4978499;28;20037;-81
2023/02/20 08:41:16;;;;;;;24.55;12.35;;;6.50;99.90;;;;;;5000323;28;20136;-81
2023/02/20 08:43:42;;;;;;;21.00;9.25;;;6.50;99.90;;;;;;5002080;28;20122;-81
2023/02/20 08:46:08;;;;;;;20.67;9.77;;;6.80;99.90;;;;;;5005170;28;20511;-81
2023/02/20 08:48:34;;;;;;;16.67;7.65;;;6.50;99.90;;;;;;4977832;28;20037;-81
2023/02/20 08:50:59;;;;;;;16.15;7.45;;;6.50;99.90;;;;;;4976096;28;20434;-81
2023/02/20 08:53:25;;;;;;;16.08;9.95;;;6.50;99.90;;;;;;4973487;28;20038;-81
2023/02/20 08:55:50;;;;;;;17.73;7.55;;;6.90;99.90;;;;;;4993608;28;20044;-81
2023/02/20 08:58:20;;;;;;;20.55;8.52;;;6.60;99.90;;;;;;4989910;28;20046;-81
2023/02/20 09:00:46;;;;;;;16.20;7.80;;;6.60;99.90;;;;;;4982110;28;20553;-82
2023/02/20 09:03:11;;;;;;;20.33;8.85;;;6.60;99.90;;;;;;4972825;28;20113;-81
2023/02/20 09:05:37;;;;;;;20.67;9.50;;;6.60;99.90;;;;;;4975480;28;20076;-82
2023/02/20 09:08:03;;;;;;;15.18;8.23;;;6.60;99.90;;;;;;4990735;28;20117;-81
2023/02/20 09:10:28;;;;;;;16.65;8.70;;;6.60;99.90;;;;;;4992522;28;20038;-81
2023/02/20 09:12:54;;;;;;;22.52;8.65;;;6.60;99.90;;;;;;4985628;28;20076;-81
2023/02/20 09:15:19;;;;;;;13.82;5.40;;;6.60;99.90;;;;;;5004544;28;20037;-82
2023/02/20 09:17:49;;;;;;;17.52;9.68;;;6.70;99.90;;;;;;5007720;28;20112;-81
2023/02/20 09:20:19;;;;;;;17.52;6.70;;;6.70;99.90;;;;;;4976342;28;20520;-82
2023/02/20 09:22:46;;;;;;;13.55;6.13;;;6.70;99.90;;;;;;5007048;28;21119;-81
2023/02/20 09:25:14;;;;;;;13.93;5.70;;;6.70;99.90;;;;;;4991391;28;20034;-81
2023/02/20 09:27:39;;;;;;;17.85;8.25;;;6.70;99.90;;;;;;4979273;28;20108;-81
2023/02/20 09:30:05;;;;;;;18.35;10.48;;;6.80;99.90;;;;;;4978569;28;20459;-82
2023/02/20 09:32:31;;;;;;;12.63;7.05;;;6.80;99.90;;;;;;4976986;28;20494;-81
2023/02/20 09:34:57;;;;;;;14.82;8.10;;;6.80;99.90;;;;;;4974810;28;20054;-81
2023/02/20 09:37:23;;;;;;;16.80;8.43;;;6.80;99.90;;;;;;4997237;28;20070;-81
2023/02/20 09:39:49;;;;;;;15.18;8.65;;;6.80;99.90;;;;;;4992844;28;20092;-81
2023/02/20 09:42:38;;;;;;;17.77;8.13;;;6.80;99.90;;;;;;4990304;28;20026;-81
2023/02/20 09:45:18;;;;;;;11.30;5.25;;;6.80;99.90;;;;;;5007516;28;20185;-82
2023/02/20 09:48:21;;;;;;;19.60;8.38;;;6.90;99.90;;;;;;4991056;28;20138;-81
2023/02/20 09:50:52;;;;;;;19.80;7.70;;;6.90;99.90;;;;;;4991679;28;20030;-81
2023/02/20 09:53:39;;;;;;;23.38;10.23;;;6.90;99.90;;;;;;5005272;28;20674;-81
2023/02/20 09:56:12;;;;;;;21.13;11.00;;;6.90;99.90;;;;;;4992342;28;20088;-83
2023/02/20 09:59:02;;;;;;;19.75;8.05;;;6.90;99.90;;;;;;5009010;28;20038;-82
2023/02/20 10:01:28;;;;;;;20.73;7.13;;;6.90;99.90;;;;;;5002614;28;20042;-81
2023/02/20 10:03:55;;;;;;;23.05;10.65;;;6.90;99.90;;;;;;4985589;28;20079;-83
2023/02/20 10:06:27;;;;;;;11.52;6.00;;;7.00;99.90;;;;;;4985661;28;20065;-83
2023/02/20 10:08:52;;;;;;;18.20;9.43;;;6.90;99.90;;;;;;4992860;28;20113;-82
2023/02/20 10:11:44;;;;;;;19.85;6.70;;;6.90;99.90;;;;;;5011625;28;20125;-82
2023/02/20 10:14:21;;;;;;;23.88;10.52;;;6.90;99.90;;;;;;4994492;28;20091;-83
2023/02/20 10:16:55;;;;;;;18.05;7.80;;;7.00;99.90;;;;;;5008157;28;20038;-82
2023/02/20 10:20:03;;;;;;;23.20;6.55;;;7.00;99.90;;;;;;4999638;28;20102;-82
2023/02/20 10:22:32;;;;;;;;;;;7.10;99.90;;;;;;4960758;28;20081;-79
2023/02/20 10:25:16;;;;;;;25.75;9.85;;;7.10;99.90;;;;;;4990872;28;19910;-81
2023/02/20 10:28:03;;;;;;;17.08;8.95;;;7.20;99.90;;;;;;5001955;28;20033;-82
2023/02/20 10:30:48;;;;;;;11.80;6.70;;;7.30;99.90;;;;;;5002009;28;20048;-82
2023/02/20 10:33:45;;;;;;;31.17;10.20;;;7.30;99.90;;;;;;5008078;28;20032;-82
2023/02/20 10:36:24;;;;;;;13.75;6.25;;;7.40;99.90;;;;;;5003612;28;20038;-82
2023/02/20 10:38:53;;;;;;;22.15;7.53;;;7.40;99.90;;;;;;4989776;28;20103;-83
2023/02/20 10:41:39;;;;;;;13.27;7.75;;;7.50;99.90;;;;;;4990714;28;20045;-82
2023/02/20 10:44:14;;;;;;;18.17;8.60;;;7.60;99.90;;;;;;5011962;28;20033;-83
2023/02/20 10:47:23;;;;;;;18.27;9.77;;;7.80;99.90;;;;;;4990122;28;20462;-82
2023/02/20 10:49:56;;;;;;;15.57;8.77;;;7.80;99.90;;;;;;5001485;28;20442;-82
2023/02/20 10:52:28;;;;;;;13.73;5.95;;;7.90;99.90;;;;;;5000706;28;20433;-82
2023/02/20 10:54:59;;;;;;;17.83;7.80;;;8.10;99.90;;;;;;4968066;28;20033;-81
2023/02/20 10:58:05;;;;;;;12.32;6.38;;;8.40;99.90;;;;;;4987820;28;20109;-82
2023/02/20 11:00:58;;;;;;;16.15;7.65;;;8.30;99.90;;;;;;5016947;28;20037;-81
2023/02/20 11:03:29;;;;;;;15.43;8.77;;;8.40;99.90;;;;;;4961986;28;20044;-83
2023/02/20 11:05:55;;;;;;;18.10;7.47;;;8.60;99.90;;;;;;5005690;28;20025;-82
2023/02/20 11:08:24;;;;;;;7.85;4.97;;;8.70;99.90;;;;;;4982865;28;20100;-82
2023/02/20 11:10:55;;;;;;;23.75;6.57;;;8.70;99.90;;;;;;4988909;28;20030;-82
2023/02/20 11:13:25;;;;;;;16.17;9.02;;;8.60;99.90;;;;;;4966669;28;20044;-82
2023/02/20 11:15:55;;;;;;;15.02;7.25;;;9.10;99.90;;;;;;5001850;28;20116;-82
2023/02/20 11:18:32;;;;;;;14.32;6.50;;;9.00;99.90;;;;;;4998257;28;20512;-83
2023/02/20 11:20:58;;;;;;;19.42;6.30;;;8.70;99.90;;;;;;4951810;28;20027;-83
2023/02/20 11:23:34;;;;;;;13.35;6.13;;;9.10;99.90;;;;;;4975959;28;20040;-82
2023/02/20 11:26:12;;;;;;;;;;;9.10;99.90;;;;;;5000652;28;20026;-82
2023/02/20 11:28:38;;;;;;;13.73;6.53;;;9.20;99.90;;;;;;5013388;28;20435;-82
2023/02/20 11:31:07;;;;;;;12.57;7.07;;;9.20;99.90;;;;;;4999863;28;20026;-83
2023/02/20 11:33:39;;;;;;;15.57;9.27;;;9.80;99.90;;;;;;4978369;28;20100;-83
2023/02/20 11:36:26;;;;;;;15.38;8.93;;;9.40;99.90;;;;;;4994984;28;20048;-84
2023/02/20 11:39:02;;;;;;;15.90;6.30;;;9.10;99.90;;;;;;4982424;28;20544;-83
2023/02/20 11:41:42;;;;;;;16.55;8.18;;;9.00;99.90;;;;;;4983795;28;20066;-83
2023/02/20 11:44:18;;;;;;;15.27;7.47;;;9.30;99.90;;;;;;4997188;28;20120;-83
2023/02/20 11:46:46;;;;;;;;;;;9.10;99.90;;;;;;4979813;28;20441;-83
2023/02/20 11:49:32;;;;;;;19.75;6.45;;;9.20;99.90;;;;;;4991343;28;20296;-83
2023/02/20 11:52:27;;;;;;;15.25;7.10;;;8.60;99.90;;;;;;4989044;28;20449;-84
2023/02/20 11:55:19;;;;;;;12.98;7.25;;;9.10;99.90;;;;;;4623432;28;10000145;-84
2023/02/20 11:57:44;;;;;;;11.82;7.32;;;9.10;99.90;;;;;;5009974;28;20438;-85
2023/02/20 12:00:21;;;;;;;13.55;7.53;;;9.10;99.90;;;;;;4992282;28;20092;-83
2023/02/20 12:03:13;;;;;;;14.23;6.97;;;9.20;99.90;;;;;;4991607;28;20486;-83
2023/02/20 12:05:46;;;;;;;15.82;5.50;;;8.90;99.90;;;;;;5008174;28;20415;-81
2023/02/20 12:08:37;;;;;;;11.05;5.78;;;8.90;99.90;;;;;;5006176;28;20049;-84
2023/02/20 12:11:07;;;;;;;18.75;10.05;;;8.90;99.90;;;;;;5007464;28;20412;-84
2023/02/20 12:13:40;;;;;;;18.67;7.47;;;8.80;99.90;;;;;;5009505;28;20444;-84
2023/02/20 12:16:45;;;;;;;14.20;7.00;;;9.00;99.90;;;;;;4970086;28;20178;-83
2023/02/20 12:19:52;;;;;;;26.38;10.10;;;8.80;99.90;;;;;;5007973;28;20046;-84
2023/02/20 12:22:35;;;;;;;7.47;4.07;;;8.90;99.90;;;;;;5008611;28;20045;-83
2023/02/20 12:25:34;;;;;;;15.13;7.78;;;8.80;99.90;;;;;;5001674;28;20036;-83
2023/02/20 12:28:08;;;;;;;23.13;8.93;;;8.70;99.90;;;;;;5002173;28;20076;-83
2023/02/20 12:30:53;;;;;;;15.50;9.00;;;8.70;99.90;;;;;;4990086;28;20109;-83
2023/02/20 12:33:50;;;;;;;19.05;9.05;;;8.60;99.90;;;;;;5010332;28;20087;-83
2023/02/20 12:36:22;;;;;;;19.35;7.72;;;8.50;99.90;;;;;;5022102;28;20038;-83
2023/02/20 12:38:52;;;;;;;17.73;8.15;;;8.60;99.90;;;;;;5007786;28;20129;-83
2023/02/20 12:41:43;;;;;;;13.00;7.07;;;8.30;99.90;;;;;;4993791;28;20593;-83
2023/02/20 12:44:27;;;;;;;18.00;8.40;;;8.50;99.90;;;;;;4971662;28;20447;-83
2023/02/20 12:47:15;;;;;;;13.82;7.22;;;8.50;99.90;;;;;;4961154;28;20030;-84
2023/02/20 12:50:11;;;;;;;9.80;5.10;;;8.60;99.90;;;;;;4991270;28;20044;-84
2023/02/20 12:52:55;;;;;;;13.73;8.75;;;8.50;99.90;;;;;;4978230;28;20061;-84
2023/02/20 12:55:53;;;;;;;13.48;5.57;;;8.50;99.90;;;;;;5001249;28;20086;-82
2023/02/20 12:58:33;;;;;;;19.55;11.85;;;8.50;99.90;;;;;;4989775;28;20029;-82
2023/02/20 13:01:13;;;;;;;26.63;13.02;;;8.60;99.90;;;;;;5003496;28;20034;-82
2023/02/20 13:03:59;;;;;;;13.13;7.35;;;8.50;99.90;;;;;;4978714;28;20112;-84
2023/02/20 13:09:34;;;;;;;;;;;8.30;99.90;;;;;;4978266;28;20037;-82
2023/02/20 13:12:18;;;;;;;20.58;10.85;;;8.30;99.90;;;;;;4968713;28;20003;-82
2023/02/20 13:15:06;;;;;;;23.60;10.23;;;8.30;99.90;;;;;;4969315;28;20022;-82
2023/02/20 13:17:58;;;;;;;10.60;5.57;;;8.20;99.90;;;;;;5005487;28;20037;-80
2023/02/20 13:20:25;;;;;;;10.82;6.28;;;8.30;99.90;;;;;;5009687;28;20510;-81
2023/02/20 13:23:19;;;;;;;19.10;9.95;;;8.60;99.90;;;;;;4985246;28;20032;-81
2023/02/20 13:25:49;;;;;;;16.58;7.30;;;8.40;99.90;;;;;;5003614;28;20580;-82
2023/02/20 13:28:41;;;;;;;17.38;8.55;;;8.20;99.90;;;;;;4998936;28;20026;-82
2023/02/20 13:31:08;;;;;;;21.45;10.70;;;8.30;99.90;;;;;;4974831;28;20026;-82